Time;durP1;ratioP1;P1;durP2;ratioP2;P2;SDS_P1;SDS_P2;PMS_P1;PMS_P2;Temp;Humidity;BMP_temperature;BMP_pressure;BME280_temperature;BME280_humidity;BME280_pressure;Samples;Min_cycle;Max_cycle;Signal;HPM_P1;HPM_P2
2023/06/13 00:00:59;;;;;;;5.00;3.97;;;;;;;19.82;58.48;97780.81;4182956;28;22461;-86
2023/06/13 00:03:14;;;;;;;5.57;4.23;;;;;;;19.76;58.54;97774.38;4196429;28;20633;-86
2023/06/13 00:05:23;;;;;;;4.80;3.40;;;;;;;19.74;58.69;97773.72;4201702;28;20633;-87
2023/06/13 00:07:30;;;;;;;5.57;4.60;;;;;;;19.69;57.38;97768.06;4164873;28;21214;-87
2023/06/13 00:09:37;;;;;;;5.80;4.13;;;;;;;19.67;57.70;97764.78;4186323;28;20633;-86
2023/06/13 00:11:41;;;;;;;4.27;3.60;;;;;;;19.63;59.11;97768.75;4147137;28;21312;-86
2023/06/13 00:13:46;;;;;;;5.50;4.20;;;;;;;19.59;58.30;97764.81;4165845;28;21340;-85
2023/06/13 00:15:53;;;;;;;5.73;3.90;;;;;;;19.57;58.23;97776.53;4154325;28;21244;-85
2023/06/13 00:17:57;;;;;;;5.33;4.73;;;;;;;19.56;58.78;97764.28;4165105;28;20749;-86
2023/06/13 00:20:06;;;;;;;4.60;3.90;;;;;;;19.50;58.30;97765.81;4188668;28;20723;-86
2023/06/13 00:22:15;;;;;;;5.40;4.10;;;;;;;19.50;59.56;97764.97;4187654;28;20627;-87
2023/06/13 00:24:19;;;;;;;5.47;4.00;;;;;;;19.47;58.61;97758.22;4185170;28;21296;-86
2023/06/13 00:26:25;;;;;;;7.23;3.90;;;;;;;19.46;58.41;97764.47;4180593;28;20773;-86
2023/06/13 00:28:34;;;;;;;5.60;4.40;;;;;;;19.50;59.18;97772.91;4172787;28;20632;-86
2023/06/13 00:30:38;;;;;;;5.20;4.40;;;;;;;19.44;59.13;97776.25;4191831;28;20646;-86
2023/06/13 00:32:41;;;;;;;4.57;3.90;;;;;;;19.38;59.33;97772.44;4193908;28;20888;-85
2023/06/13 00:34:46;;;;;;;4.20;3.60;;;;;;;19.39;59.67;97768.81;4171811;28;20685;-86
2023/06/13 00:36:53;;;;;;;4.93;3.90;;;;;;;19.37;58.99;97776.06;4187418;28;21593;-86
2023/06/13 00:39:06;;;;;;;7.67;3.97;;;;;;;19.37;59.31;97766.50;4167003;28;21703;-85
2023/06/13 00:41:12;;;;;;;4.70;4.13;;;;;;;19.34;58.88;97759.72;4176606;28;20639;-86
2023/06/13 00:43:23;;;;;;;5.60;4.20;;;;;;;19.29;59.64;97759.38;4184037;28;20755;-86
2023/06/13 00:45:28;;;;;;;5.03;3.83;;;;;;;19.29;58.68;97758.53;4182212;28;20640;-86
2023/06/13 00:47:36;;;;;;;5.77;4.60;;;;;;;19.28;59.60;97768.31;4191960;28;20640;-86
2023/06/13 00:49:40;;;;;;;7.10;4.10;;;;;;;19.25;59.05;97759.88;4183633;28;21256;-86
2023/06/13 00:51:44;;;;;;;4.90;3.57;;;;;;;19.22;59.10;97760.22;4180606;28;20660;-87
2023/06/13 00:53:49;;;;;;;11.23;4.30;;;;;;;19.21;59.02;97758.56;4190495;28;20635;-85
2023/06/13 00:55:54;;;;;;;6.43;3.90;;;;;;;19.19;59.39;97760.53;4171308;28;20818;-86
2023/06/13 00:58:08;;;;;;;4.90;3.87;;;;;;;19.13;59.53;97763.84;4170549;28;20679;-85
2023/06/13 01:00:12;;;;;;;5.20;3.93;;;;;;;19.16;59.70;97759.06;4190320;28;21134;-86
2023/06/13 01:02:20;;;;;;;5.63;4.10;;;;;;;19.11;59.61;97768.47;4192212;28;20661;-87
2023/06/13 01:04:30;;;;;;;4.30;3.90;;;;;;;19.03;59.99;97755.25;4170110;28;20743;-86
2023/06/13 01:06:45;;;;;;;5.23;4.27;;;;;;;19.00;59.68;97752.91;4157233;28;20652;-86
2023/06/13 01:08:58;;;;;;;5.00;3.67;;;;;;;18.99;59.92;97760.00;4162560;28;20791;-87
2023/06/13 01:11:15;;;;;;;5.93;3.73;;;;;;;18.96;59.80;97760.34;4171949;28;20641;-87
2023/06/13 01:13:28;;;;;;;6.30;4.43;;;;;;;18.91;60.46;97743.31;4154223;28;20640;-87
2023/06/13 01:15:36;;;;;;;6.67;4.07;;;;;;;18.91;60.20;97751.22;4191742;28;20770;-86
2023/06/13 01:17:49;;;;;;;5.20;4.10;;;;;;;18.90;60.18;97753.06;4173311;28;20658;-86
2023/06/13 01:19:59;;;;;;;4.53;3.70;;;;;;;18.90;60.35;97749.59;4186782;28;20639;-87
2023/06/13 01:22:08;;;;;;;5.33;3.73;;;;;;;18.90;60.07;97746.97;4178460;28;20678;-86
2023/06/13 01:24:23;;;;;;;4.83;4.00;;;;;;;18.88;60.38;97751.56;4190483;28;20641;-86
2023/06/13 01:26:51;;;;;;;5.73;3.80;;;;;;;18.89;60.17;97742.66;4180636;28;20632;-87
2023/06/13 01:29:00;;;;;;;5.00;3.80;;;;;;;18.88;60.30;97747.13;4163924;28;20619;-86
2023/06/13 01:31:08;;;;;;;4.70;3.80;;;;;;;18.77;60.53;97741.31;4176927;28;20633;-86
2023/06/13 01:33:12;;;;;;;3.70;3.30;;;;;;;18.74;60.50;97741.66;4177782;28;20674;-86
2023/06/13 01:35:21;;;;;;;4.73;3.70;;;;;;;18.74;60.60;97741.66;4179424;28;20641;-86
2023/06/13 01:37:30;;;;;;;6.03;3.93;;;;;;;18.74;60.55;97744.28;4193604;28;21978;-87
2023/06/13 01:39:37;;;;;;;8.83;4.17;;;;;;;18.67;60.90;97739.81;4192092;28;20731;-82
2023/06/13 01:41:40;;;;;;;5.60;4.30;;;;;;;18.64;60.77;97748.06;4183179;28;20675;-83
2023/06/13 01:43:44;;;;;;;5.50;4.57;;;;;;;18.64;60.75;97746.28;4179991;28;20623;-83
2023/06/13 01:45:50;;;;;;;5.00;3.93;;;;;;;18.59;60.49;97745.91;4174913;28;21062;-83
2023/06/13 01:48:01;;;;;;;5.13;4.13;;;;;;;18.54;61.26;97744.75;4189160;28;20623;-81
2023/06/13 01:50:18;;;;;;;5.17;4.13;;;;;;;18.56;60.86;97748.06;4172670;28;20607;-83
2023/06/13 01:52:28;;;;;;;6.20;4.03;;;;;;;18.55;60.50;97752.53;4168527;28;20714;-83
2023/06/13 01:54:45;;;;;;;5.00;3.80;;;;;;;18.46;61.41;97735.00;4194647;28;20638;-83
2023/06/13 01:56:54;;;;;;;5.87;4.27;;;;;;;18.41;61.20;97746.22;4172754;28;20644;-83
2023/06/13 01:59:01;;;;;;;5.40;3.83;;;;;;;18.35;61.33;97731.00;4177947;28;20659;-83
2023/06/13 02:01:09;;;;;;;5.47;4.10;;;;;;;18.34;61.15;97734.63;4194937;28;20753;-83
2023/06/13 02:03:14;;;;;;;4.40;3.80;;;;;;;18.28;61.33;97738.75;4199309;28;20657;-83
2023/06/13 02:05:21;;;;;;;4.63;3.80;;;;;;;18.20;62.13;97735.25;4195779;28;21195;-83
2023/06/13 02:07:27;;;;;;;5.30;3.80;;;;;;;18.16;62.10;97742.66;4193143;28;20654;-83
2023/06/13 02:09:30;;;;;;;4.80;3.90;;;;;;;18.12;62.34;97741.28;4209147;28;20669;-83
2023/06/13 02:11:33;;;;;;;4.37;3.63;;;;;;;18.12;61.97;97736.00;4201096;28;20644;-83
2023/06/13 02:13:37;;;;;;;4.83;3.40;;;;;;;18.06;61.96;97738.47;4170529;28;21379;-83
2023/06/13 02:15:40;;;;;;;4.40;3.70;;;;;;;18.04;62.63;97733.34;4204881;28;20633;-83
2023/06/13 02:17:45;;;;;;;4.80;3.80;;;;;;;17.98;63.31;97728.72;4188470;28;20653;-83
2023/06/13 02:19:48;;;;;;;6.50;4.00;;;;;;;17.92;63.08;97737.25;4172273;28;20718;-82
2023/06/13 02:21:52;;;;;;;3.90;3.50;;;;;;;17.93;63.40;97740.72;4191344;28;20700;-83
2023/06/13 02:23:55;;;;;;;10.83;6.13;;;;;;;17.86;62.51;97728.31;4172667;28;20646;-82
2023/06/13 02:25:58;;;;;;;6.13;3.87;;;;;;;17.87;63.12;97736.06;4183221;28;20631;-82
2023/06/13 02:28:02;;;;;;;4.93;3.80;;;;;;;17.84;62.24;97735.56;4194752;28;20634;-83
2023/06/13 02:30:08;;;;;;;4.10;3.70;;;;;;;17.76;63.86;97738.16;4188735;28;21299;-83
2023/06/13 02:32:11;;;;;;;4.80;4.00;;;;;;;17.73;62.34;97739.31;4177464;28;20715;-83
2023/06/13 02:34:16;;;;;;;4.60;4.10;;;;;;;17.73;63.65;97728.75;4173831;28;20639;-83
2023/06/13 02:36:19;;;;;;;4.80;3.77;;;;;;;17.70;63.12;97729.06;4176649;28;20631;-83
2023/06/13 02:38:22;;;;;;;3.93;3.23;;;;;;;17.68;62.79;97736.31;4190735;28;20746;-83
2023/06/13 02:40:29;;;;;;;4.80;4.17;;;;;;;17.69;63.88;97730.03;4191628;28;20741;-83
2023/06/13 02:42:36;;;;;;;4.87;4.07;;;;;;;17.63;63.17;97732.47;4193919;28;21077;-81
2023/06/13 02:44:41;;;;;;;4.80;3.93;;;;;;;17.59;63.84;97731.13;4203995;28;20636;-83
2023/06/13 02:46:45;;;;;;;5.03;3.90;;;;;;;17.55;63.91;97722.72;4183274;28;20740;-83
2023/06/13 02:48:49;;;;;;;6.30;4.20;;;;;;;17.56;63.39;97732.28;4186492;28;20642;-83
2023/06/13 02:50:55;;;;;;;4.43;4.03;;;;;;;17.53;63.33;97737.88;4188863;28;20750;-83
2023/06/13 02:52:59;;;;;;;5.63;4.07;;;;;;;17.49;63.39;97736.53;4190397;28;20626;-83
2023/06/13 02:55:02;;;;;;;5.23;4.03;;;;;;;17.45;63.95;97730.91;4171709;28;20652;-83
2023/06/13 02:57:07;;;;;;;5.43;4.20;;;;;;;17.42;64.58;97731.22;4170968;28;20639;-82
2023/06/13 02:59:11;;;;;;;4.97;3.93;;;;;;;17.43;63.95;97730.22;4180559;28;21084;-82
2023/06/13 03:01:14;;;;;;;4.67;3.80;;;;;;;17.44;63.82;97734.50;4196591;28;20641;-83
2023/06/13 03:03:23;;;;;;;4.87;3.87;;;;;;;17.42;63.24;97736.47;4178833;28;20634;-82
2023/06/13 03:05:30;;;;;;;4.17;3.67;;;;;;;17.39;64.38;97729.69;4174639;28;20680;-82
2023/06/13 03:07:42;;;;;;;6.30;4.13;;;;;;;17.36;63.68;97732.63;4177835;28;20620;-82
2023/06/13 03:09:47;;;;;;;6.00;4.17;;;;;;;17.36;63.72;97747.66;4173277;28;20646;-83
2023/06/13 03:11:51;;;;;;;4.67;3.93;;;;;;;17.35;64.31;97736.28;4172707;28;21206;-83
2023/06/13 03:13:54;;;;;;;7.57;5.00;;;;;;;17.31;64.36;97740.19;4178023;28;20643;-83
2023/06/13 03:15:57;;;;;;;4.53;3.53;;;;;;;17.30;63.52;97740.34;4196193;28;20672;-83
2023/06/13 03:18:05;;;;;;;5.13;4.13;;;;;;;17.35;63.89;97749.47;4187648;28;20641;-83
2023/06/13 03:20:09;;;;;;;5.03;3.53;;;;;;;17.37;64.72;97744.84;4189226;28;20710;-82
2023/06/13 03:22:14;;;;;;;4.10;3.67;;;;;;;17.36;64.90;97745.81;4174219;28;20643;-82
2023/06/13 03:24:20;;;;;;;4.13;3.47;;;;;;;17.32;64.36;97746.28;4172608;28;21859;-82
2023/06/13 03:26:23;;;;;;;4.20;3.53;;;;;;;17.36;64.42;97753.72;4191184;28;20638;-82
2023/06/13 03:28:27;;;;;;;5.10;3.93;;;;;;;17.36;64.40;97758.19;4187484;28;20646;-82
2023/06/13 03:30:31;;;;;;;4.53;3.90;;;;;;;17.40;64.93;97762.19;4191252;28;20635;-82
2023/06/13 03:32:34;;;;;;;4.63;4.07;;;;;;;17.34;64.88;97763.63;4194171;28;20768;-82
2023/06/13 03:34:39;;;;;;;4.80;3.90;;;;;;;17.37;63.89;97768.59;4185035;28;20641;-82
2023/06/13 03:36:46;;;;;;;5.23;4.50;;;;;;;17.37;65.02;97768.59;4171984;28;20725;-82
2023/06/13 03:38:49;;;;;;;5.40;3.90;;;;;;;17.37;64.15;97759.84;4185788;28;20655;-83
2023/06/13 03:40:54;;;;;;;5.90;4.00;;;;;;;17.38;63.50;97769.41;4179051;28;20656;-82
2023/06/13 03:42:58;;;;;;;4.33;3.67;;;;;;;17.39;63.28;97771.06;4176270;28;20658;-82
2023/06/13 03:45:01;;;;;;;4.87;4.20;;;;;;;17.41;63.77;97774.38;4186112;28;20727;-82
2023/06/13 03:47:06;;;;;;;4.23;3.77;;;;;;;17.42;64.13;97776.84;4177596;28;20642;-82
2023/06/13 03:49:10;;;;;;;4.53;3.60;;;;;;;17.43;63.32;97781.16;4194072;28;20640;-82
2023/06/13 03:51:13;;;;;;;5.17;4.37;;;;;;;17.46;64.84;97786.13;4198977;28;20676;-82
2023/06/13 03:53:16;;;;;;;4.47;3.90;;;;;;;17.48;64.97;97787.63;4173403;28;20655;-82
2023/06/13 03:55:19;;;;;;;4.87;4.20;;;;;;;17.50;63.79;97787.47;4177672;28;20746;-83
2023/06/13 03:57:30;;;;;;;6.00;4.30;;;;;;;17.54;63.38;97787.00;4167868;28;21018;-87
2023/06/13 03:59:36;;;;;;;6.40;5.10;;;;;;;17.55;64.44;97790.47;4170506;28;20643;-86
2023/06/13 04:01:41;;;;;;;7.60;4.80;;;;;;;17.54;65.08;97784.34;4190098;28;20626;-86
2023/06/13 04:03:49;;;;;;;6.80;4.63;;;;;;;17.53;64.00;97795.09;4190136;28;20620;-86
2023/06/13 04:05:53;;;;;;;9.57;5.60;;;;;;;17.53;64.12;97801.19;4182728;28;20643;-86
2023/06/13 04:07:56;;;;;;;13.00;7.50;;;;;;;17.56;64.67;97792.97;4163962;28;20755;-86
2023/06/13 04:10:04;;;;;;;13.00;8.27;;;;;;;17.59;64.33;97795.28;4188142;28;21081;-86
2023/06/13 04:12:12;;;;;;;10.50;6.67;;;;;;;17.62;63.49;97797.63;4175714;28;20647;-86
2023/06/13 04:14:18;;;;;;;8.80;6.70;;;;;;;17.64;63.13;97798.28;4187717;28;20641;-86
2023/06/13 04:16:25;;;;;;;6.33;5.10;;;;;;;17.65;64.50;97810.50;4161822;28;21207;-87
2023/06/13 04:18:39;;;;;;;6.57;4.30;;;;;;;17.68;63.27;97802.28;4175880;28;20638;-87
2023/06/13 04:20:48;;;;;;;6.03;4.40;;;;;;;17.72;64.03;97803.59;4176087;28;20749;-85
2023/06/13 04:22:55;;;;;;;4.83;3.57;;;;;;;17.73;63.51;97801.81;4177114;28;20627;-87
2023/06/13 04:24:59;;;;;;;5.00;4.13;;;;;;;17.72;64.87;97811.50;4184757;28;20627;-89
2023/06/13 04:27:05;;;;;;;4.83;3.80;;;;;;;17.73;63.74;97813.19;4176486;28;21415;-90
2023/06/13 04:29:09;;;;;;;5.10;4.23;;;;;;;17.73;64.34;97805.25;4184361;28;21005;-89
2023/06/13 04:31:13;;;;;;;4.80;4.10;;;;;;;17.74;64.18;97809.56;4182244;28;20635;-91
2023/06/13 04:33:24;;;;;;;4.90;3.80;;;;;;;17.77;63.83;97806.63;4175132;28;20644;-90
2023/06/13 04:35:29;;;;;;;4.53;4.10;;;;;;;17.81;64.36;97817.69;4183828;28;20688;-88
2023/06/13 04:37:40;;;;;;;4.50;4.10;;;;;;;17.82;65.10;97806.97;4177262;28;20631;-88
2023/06/13 04:39:43;;;;;;;4.83;4.30;;;;;;;17.84;64.75;97810.28;4181918;28;20653;-86
2023/06/13 04:41:48;;;;;;;5.20;3.80;;;;;;;17.87;64.97;97806.50;4165579;28;20635;-86
2023/06/13 04:44:00;;;;;;;4.97;3.90;;;;;;;17.91;64.80;97805.22;4164968;28;21063;-86
2023/06/13 04:46:07;;;;;;;5.60;4.10;;;;;;;17.93;65.25;97804.06;4164656;28;20628;-85
2023/06/13 04:48:14;;;;;;;6.90;4.10;;;;;;;17.99;64.53;97808.72;4185647;28;20641;-85
2023/06/13 04:50:24;;;;;;;5.67;3.90;;;;;;;18.03;63.78;97816.16;4183095;28;20652;-85
2023/06/13 04:52:32;;;;;;;3.90;3.50;;;;;;;18.07;63.83;97817.50;4176596;28;20999;-85
2023/06/13 04:54:46;;;;;;;5.60;4.33;;;;;;;18.06;63.31;97812.38;4178876;28;20637;-85
2023/06/13 04:56:52;;;;;;;5.20;4.10;;;;;;;18.04;62.99;97817.81;4167994;28;20627;-84
2023/06/13 04:59:00;;;;;;;4.70;3.70;;;;;;;18.07;63.07;97820.16;4140806;28;20739;-84
2023/06/13 05:01:07;;;;;;;4.87;3.80;;;;;;;18.14;63.04;97830.94;4172360;28;20646;-85
2023/06/13 05:03:18;;;;;;;4.90;3.90;;;;;;;18.16;63.62;97829.81;4169099;28;20653;-84
2023/06/13 05:05:22;;;;;;;5.43;4.77;;;;;;;18.21;62.67;97824.88;4181032;28;20631;-84
2023/06/13 05:07:34;;;;;;;4.00;3.50;;;;;;;18.27;62.61;97824.22;4156322;28;20671;-84
2023/06/13 05:09:42;;;;;;;5.20;4.33;;;;;;;18.27;63.17;97823.41;4158401;28;24159;-84
2023/06/13 05:11:46;;;;;;;4.13;3.57;;;;;;;18.32;63.92;97821.13;4167861;28;22139;-84
2023/06/13 05:13:53;;;;;;;4.87;3.97;;;;;;;18.37;63.48;97819.63;4158988;28;20739;-84
2023/06/13 05:16:01;;;;;;;6.00;3.80;;;;;;;18.43;62.52;97819.84;4181302;28;21243;-84
2023/06/13 05:18:07;;;;;;;5.90;4.23;;;;;;;18.49;63.74;97828.94;4178481;28;20642;-84
2023/06/13 05:20:17;;;;;;;4.77;3.33;;;;;;;18.55;62.92;97825.66;4181266;28;20657;-83
2023/06/13 05:22:22;;;;;;;5.70;4.30;;;;;;;18.63;63.23;97830.97;4169222;28;20855;-84
2023/06/13 05:24:27;;;;;;;5.90;4.10;;;;;;;18.71;62.71;97839.75;4175588;28;20735;-84
2023/06/13 05:26:33;;;;;;;4.63;4.00;;;;;;;18.81;62.18;97834.31;4178884;28;20635;-84
2023/06/13 05:28:36;;;;;;;5.03;4.13;;;;;;;18.87;62.34;97839.81;4166800;28;20762;-84
2023/06/13 05:30:41;;;;;;;5.00;3.67;;;;;;;18.91;61.25;97836.69;4181387;28;20723;-84
2023/06/13 05:32:47;;;;;;;6.03;3.60;;;;;;;19.01;60.93;97841.81;4186006;28;20646;-84
2023/06/13 05:34:52;;;;;;;4.83;3.53;;;;;;;19.11;61.35;97845.16;4182977;28;20629;-84
2023/06/13 05:36:57;;;;;;;4.80;3.50;;;;;;;19.30;61.05;97850.13;4192810;28;20675;-83
2023/06/13 05:39:01;;;;;;;5.23;4.23;;;;;;;19.48;59.16;97846.34;4166941;28;21626;-84
2023/06/13 05:41:06;;;;;;;5.40;3.80;;;;;;;19.74;60.45;97847.84;4177497;28;20711;-84
2023/06/13 05:43:10;;;;;;;4.43;3.50;;;;;;;20.11;58.87;97853.41;4183218;28;20630;-84
2023/06/13 05:45:15;;;;;;;4.23;3.83;;;;;;;20.41;59.13;97859.59;4183726;28;20625;-84
2023/06/13 05:47:18;;;;;;;5.73;4.40;;;;;;;20.68;59.54;97853.91;4201755;28;20646;-84
2023/06/13 05:49:27;;;;;;;6.83;3.87;;;;;;;21.01;57.35;97853.56;4143679;28;21004;-84
2023/06/13 05:51:32;;;;;;;4.20;3.80;;;;;;;21.22;55.77;97856.44;4186869;28;21352;-83
2023/06/13 05:53:43;;;;;;;6.43;4.07;;;;;;;21.48;55.85;97863.06;4146366;28;21132;-85
2023/06/13 05:55:49;;;;;;;4.30;3.90;;;;;;;21.55;55.88;97849.91;4187732;28;20645;-84
2023/06/13 05:57:53;;;;;;;4.83;3.67;;;;;;;21.84;54.82;97853.47;4178420;28;20619;-84
2023/06/13 06:00:00;;;;;;;4.27;3.30;;;;;;;22.13;53.76;97853.50;4179999;28;20637;-84
2023/06/13 06:02:17;;;;;;;7.83;4.20;;;;;;;22.27;54.08;97857.03;4177626;28;21320;-84
2023/06/13 06:04:25;;;;;;;4.20;3.80;;;;;;;22.48;54.70;97867.78;4198425;28;20630;-85
2023/06/13 06:06:32;;;;;;;5.20;3.90;;;;;;;22.71;54.04;97865.03;4186741;28;20666;-85
2023/06/13 06:08:36;;;;;;;5.00;3.80;;;;;;;22.93;52.83;97871.06;4171433;28;20668;-85
2023/06/13 06:10:44;;;;;;;6.83;4.10;;;;;;;22.91;52.20;97862.41;4184498;28;21028;-84
2023/06/13 06:12:49;;;;;;;5.77;3.90;;;;;;;23.09;52.76;97864.69;4182849;28;20632;-85
2023/06/13 06:14:53;;;;;;;4.97;3.40;;;;;;;23.29;51.42;97878.03;4182607;28;20622;-85
2023/06/13 06:17:00;;;;;;;3.80;3.40;;;;;;;23.48;52.67;97864.09;4178976;28;20695;-84
2023/06/13 06:19:03;;;;;;;3.97;3.50;;;;;;;23.76;51.37;97875.69;4143372;28;20789;-83
2023/06/13 06:21:07;;;;;;;4.43;3.70;;;;;;;24.03;52.14;97872.22;4173615;28;20765;-83
2023/06/13 06:23:14;;;;;;;4.40;3.83;;;;;;;24.22;50.53;97872.34;4170313;28;20786;-83
2023/06/13 06:25:26;;;;;;;4.93;4.37;;;;;;;24.26;51.00;97869.09;4194981;28;20638;-82
2023/06/13 06:27:44;;;;;;;4.23;3.33;;;;;;;24.29;50.19;97858.03;4187882;28;20658;-83
2023/06/13 06:29:51;;;;;;;5.87;3.87;;;;;;;24.41;50.20;97856.50;4179520;28;21336;-83
2023/06/13 06:31:59;;;;;;;4.23;3.53;;;;;;;24.43;49.63;97858.97;4183412;28;20640;-83
2023/06/13 06:34:02;;;;;;;4.13;3.50;;;;;;;24.27;49.75;97848.59;4179005;28;21315;-83
2023/06/13 06:36:09;;;;;;;4.70;4.00;;;;;;;24.35;49.52;97862.63;4195231;28;20644;-83
2023/06/13 06:38:12;;;;;;;4.40;3.90;;;;;;;24.47;49.09;97858.41;4196479;28;20625;-82
2023/06/13 06:40:17;;;;;;;4.30;3.77;;;;;;;24.42;47.50;97852.84;4177960;28;21440;-82
2023/06/13 06:42:21;;;;;;;5.50;3.67;;;;;;;24.55;49.48;97863.59;4189205;28;20688;-85
2023/06/13 06:44:42;;;;;;;4.57;3.90;;;;;;;24.70;48.13;97859.78;4189112;28;20672;-87
2023/06/13 06:46:48;;;;;;;4.97;3.80;;;;;;;24.49;48.36;97861.72;4193432;28;20650;-85
2023/06/13 06:48:52;;;;;;;5.47;3.60;;;;;;;24.44;49.28;97860.63;4197178;28;20684;-85
2023/06/13 06:50:56;;;;;;;4.63;3.60;;;;;;;24.55;49.36;97857.41;4181635;28;20958;-85
2023/06/13 06:52:59;;;;;;;4.10;3.63;;;;;;;24.61;48.62;97859.28;4202977;28;20690;-85
2023/06/13 06:55:02;;;;;;;5.27;4.00;;;;;;;24.86;48.26;97864.75;4184799;28;21058;-85
2023/06/13 06:57:06;;;;;;;4.10;3.63;;;;;;;25.04;48.45;97865.06;4197658;28;20641;-85
2023/06/13 06:59:09;;;;;;;4.10;3.70;;;;;;;25.33;47.97;97872.75;4202991;28;21337;-85
2023/06/13 07:01:15;;;;;;;4.83;3.50;;;;;;;25.40;47.78;97866.41;4196243;28;21077;-85
2023/06/13 07:03:19;;;;;;;4.43;3.77;;;;;;;25.42;47.00;97864.34;4196219;28;20697;-85
2023/06/13 07:05:22;;;;;;;4.70;3.90;;;;;;;25.46;46.87;97864.78;4190090;28;20698;-85
2023/06/13 07:07:26;;;;;;;4.10;3.63;;;;;;;25.39;46.83;97862.09;4186846;28;21064;-86
2023/06/13 07:09:29;;;;;;;5.10;3.50;;;;;;;25.17;46.45;97863.28;4187964;28;20618;-85
2023/06/13 07:11:32;;;;;;;4.67;3.43;;;;;;;25.32;46.52;97868.47;4185847;28;21182;-84
2023/06/13 07:13:35;;;;;;;3.70;3.10;;;;;;;25.46;46.02;97873.63;4197055;28;20622;-84
2023/06/13 07:15:38;;;;;;;5.83;4.03;;;;;;;25.45;46.33;97863.94;4197426;28;20627;-83
2023/06/13 07:17:44;;;;;;;5.30;3.70;;;;;;;25.28;45.82;97857.34;4193459;28;20655;-81
2023/06/13 07:19:47;;;;;;;4.10;3.43;;;;;;;25.41;46.29;97857.38;4202204;28;21442;-81
2023/06/13 07:21:50;;;;;;;4.67;3.63;;;;;;;25.52;46.24;97859.47;4178534;28;21206;-83
2023/06/13 07:23:53;;;;;;;4.07;3.67;;;;;;;25.45;45.37;97865.81;4198295;28;21032;-84
2023/06/13 07:26:09;;;;;;;4.70;3.93;;;;;;;25.58;46.44;97860.50;4198177;28;20649;-84
2023/06/13 07:28:13;;;;;;;4.50;3.73;;;;;;;25.61;46.32;97858.25;4201705;28;21012;-85
2023/06/13 07:30:23;;;;;;;3.90;3.20;;;;;;;25.30;45.53;97854.47;4191113;28;20659;-84
2023/06/13 07:32:30;;;;;;;4.60;3.80;;;;;;;25.04;45.81;97848.25;4178381;28;20750;-84
2023/06/13 07:34:39;;;;;;;3.97;3.37;;;;;;;25.30;46.35;97854.47;4185808;28;20680;-84
2023/06/13 07:37:03;;;;;;;5.30;3.90;;;;;;;25.43;45.46;97836.63;4184358;28;20631;-84
2023/06/13 07:39:12;;;;;;;4.80;3.73;;;;;;;25.58;45.88;97852.50;4193191;28;20729;-84
2023/06/13 07:41:15;;;;;;;4.90;4.00;;;;;;;25.40;44.67;97847.72;4183326;28;20686;-84
2023/06/13 07:43:24;;;;;;;4.77;3.60;;;;;;;25.37;45.00;97845.44;4192828;28;20646;-84
2023/06/13 07:45:32;;;;;;;4.40;3.50;;;;;;;25.36;43.58;97840.31;4184245;28;20624;-84
2023/06/13 07:47:51;;;;;;;5.20;4.70;;;;;;;25.28;45.22;97852.00;4182526;28;20648;-84
2023/06/13 07:50:00;;;;;;;4.10;3.70;;;;;;;25.32;45.03;97836.41;4176493;28;20793;-84
2023/06/13 07:52:10;;;;;;;4.10;3.40;;;;;;;25.38;44.79;97841.75;4192311;28;20626;-84
2023/06/13 07:54:17;;;;;;;4.40;3.67;;;;;;;25.50;45.81;97834.81;4181536;28;20627;-84
2023/06/13 07:56:23;;;;;;;4.70;3.63;;;;;;;25.47;45.87;97827.19;4199171;28;20675;-84
2023/06/13 07:58:38;;;;;;;3.93;3.53;;;;;;;25.66;45.98;97835.25;4183185;28;20819;-84
2023/06/13 08:00:49;;;;;;;4.97;3.97;;;;;;;25.76;45.52;97840.19;4202080;28;20623;-84
2023/06/13 08:02:54;;;;;;;4.00;3.60;;;;;;;25.94;47.38;97843.09;4181838;28;21100;-84
2023/06/13 08:04:58;;;;;;;4.87;3.80;;;;;;;25.89;44.84;97837.50;4198380;28;20631;-84
2023/06/13 08:07:02;;;;;;;5.40;3.80;;;;;;;25.92;45.75;97834.44;4207088;28;20659;-84
2023/06/13 08:09:08;;;;;;;3.90;3.50;;;;;;;25.94;45.52;97835.06;4197863;28;20620;-84
2023/06/13 08:11:12;;;;;;;4.97;4.10;;;;;;;25.76;45.20;97829.50;4173861;28;21198;-84
2023/06/13 08:13:15;;;;;;;4.10;3.70;;;;;;;25.46;45.09;97835.41;4195299;28;20627;-85
2023/06/13 08:15:19;;;;;;;4.37;3.97;;;;;;;25.52;46.26;97827.41;4200562;28;20638;-84
2023/06/13 08:17:24;;;;;;;4.80;3.40;;;;;;;25.80;45.34;97833.38;4182687;28;20735;-84
2023/06/13 08:19:30;;;;;;;6.23;4.43;;;;;;;25.86;45.35;97821.88;4184404;28;20629;-84
2023/06/13 08:21:44;;;;;;;3.93;3.43;;;;;;;25.93;45.85;97814.69;4182900;28;20632;-84
2023/06/13 08:23:52;;;;;;;4.30;3.47;;;;;;;25.99;44.88;97824.56;4177652;28;21313;-84
2023/06/13 08:26:06;;;;;;;4.17;3.77;;;;;;;26.19;44.97;97827.00;4186042;28;20727;-84
2023/06/13 08:28:16;;;;;;;4.93;4.30;;;;;;;26.03;45.53;97815.09;4183810;28;20697;-84
2023/06/13 08:30:22;;;;;;;4.80;4.23;;;;;;;26.07;45.29;97814.47;4199023;28;20620;-84
2023/06/13 08:32:28;;;;;;;4.00;3.57;;;;;;;25.95;44.37;97808.13;4198180;28;21217;-83
2023/06/13 08:34:32;;;;;;;3.23;2.80;;;;;;;25.93;45.61;97814.69;4194862;28;20749;-84
2023/06/13 08:36:36;;;;;;;5.17;4.67;;;;;;;26.11;45.24;97819.19;4205845;28;20627;-85
2023/06/13 08:38:41;;;;;;;4.57;3.93;;;;;;;26.26;45.52;97822.44;4178360;28;20628;-84
2023/06/13 08:41:02;;;;;;;5.97;4.00;;;;;;;26.36;45.35;97817.53;4171081;28;20638;-84
2023/06/13 08:43:07;;;;;;;4.70;3.67;;;;;;;26.41;45.32;97822.25;4189519;28;21055;-84
2023/06/13 08:45:15;;;;;;;3.40;3.10;;;;;;;25.93;45.28;97802.13;4189670;28;20630;-84
2023/06/13 08:47:21;;;;;;;4.70;4.00;;;;;;;25.98;45.00;97804.19;4179951;28;20657;-84
2023/06/13 08:49:43;;;;;;;4.90;4.07;;;;;;;26.08;44.73;97803.56;4187247;28;21329;-84
2023/06/13 08:51:53;;;;;;;6.40;3.97;;;;;;;26.05;45.60;97802.34;4184846;28;20666;-83
2023/06/13 08:54:02;;;;;;;4.00;3.60;;;;;;;26.08;45.56;97798.22;4173931;28;21208;-83
2023/06/13 08:56:08;;;;;;;4.70;3.60;;;;;;;25.92;45.67;97788.97;4194802;28;21218;-84
2023/06/13 08:58:16;;;;;;;6.50;3.80;;;;;;;25.82;45.25;97789.41;4194408;28;20643;-83
2023/06/13 09:00:20;;;;;;;3.97;3.57;;;;;;;25.70;45.10;97788.38;4199310;28;20691;-84
2023/06/13 09:02:24;;;;;;;3.73;3.33;;;;;;;25.87;45.20;97796.78;4189849;28;20775;-84
2023/06/13 09:04:32;;;;;;;5.90;3.60;;;;;;;25.88;44.92;97788.56;4195307;28;20622;-84
2023/06/13 09:06:37;;;;;;;4.77;4.37;;;;;;;26.10;46.91;97800.69;4193986;28;20657;-84
2023/06/13 09:08:41;;;;;;;4.87;3.67;;;;;;;26.29;44.67;97803.34;4185715;28;20664;-84
2023/06/13 09:10:46;;;;;;;3.47;3.10;;;;;;;26.33;44.66;97809.13;4189722;28;20627;-83
2023/06/13 09:12:51;;;;;;;4.47;3.33;;;;;;;26.03;43.47;97799.06;4198932;28;20714;-84
2023/06/13 09:14:55;;;;;;;4.40;3.70;;;;;;;26.08;44.06;97801.94;4168464;28;20636;-83
2023/06/13 09:16:59;;;;;;;5.00;3.53;;;;;;;26.11;44.34;97787.09;4178272;28;20677;-84
2023/06/13 09:19:06;;;;;;;3.90;3.43;;;;;;;25.94;43.94;97785.06;4179103;28;20628;-84
2023/06/13 09:21:10;;;;;;;5.10;3.50;;;;;;;26.12;44.71;97787.94;4200320;28;21317;-84
2023/06/13 09:23:16;;;;;;;4.10;3.60;;;;;;;26.32;43.69;97786.88;4170277;28;20655;-84
2023/06/13 09:25:22;;;;;;;4.93;3.43;;;;;;;25.86;43.03;97787.13;4184409;28;20645;-84
2023/06/13 09:27:27;;;;;;;4.10;3.30;;;;;;;25.66;43.65;97781.81;4180427;28;20637;-84
2023/06/13 09:29:35;;;;;;;4.40;3.80;;;;;;;25.60;43.31;97779.94;4195356;28;20642;-84
2023/06/13 09:31:43;;;;;;;4.90;3.57;;;;;;;25.55;43.44;97756.69;4167199;28;20644;-83
2023/06/13 09:33:51;;;;;;;3.93;3.43;;;;;;;25.56;42.65;97780.53;4187565;28;20622;-84
2023/06/13 09:35:54;;;;;;;4.77;3.70;;;;;;;25.59;43.46;97769.44;4200032;28;20627;-83
2023/06/13 09:37:57;;;;;;;4.43;3.90;;;;;;;25.58;44.83;97773.94;4199153;28;20619;-84
2023/06/13 09:40:04;;;;;;;6.63;3.57;;;;;;;25.64;45.36;97773.16;4200966;28;20757;-84
2023/06/13 09:42:20;;;;;;;6.70;3.80;;;;;;;25.87;44.72;97772.72;4204985;28;20627;-84
2023/06/13 09:44:25;;;;;;;5.27;4.20;;;;;;;25.94;44.53;97770.88;4201906;28;20665;-84
2023/06/13 09:46:29;;;;;;;5.03;3.80;;;;;;;26.05;45.30;97773.72;4198872;28;20678;-83
2023/06/13 09:48:32;;;;;;;4.80;4.10;;;;;;;26.00;44.05;97767.38;4190225;28;20661;-82
2023/06/13 09:50:56;;;;;;;7.17;3.73;;;;;;;25.81;44.41;97765.53;4199284;28;20734;-84
2023/06/13 09:52:59;;;;;;;4.67;3.93;;;;;;;25.77;44.97;97761.63;4197110;28;20639;-84
2023/06/13 09:55:02;;;;;;;4.60;3.73;;;;;;;26.02;44.43;97771.47;4203570;28;20653;-84
2023/06/13 09:57:06;;;;;;;4.50;3.60;;;;;;;25.99;44.45;97760.38;4200614;28;21083;-84